sensor_id;sensor_type;location;lat;lon;timestamp;P1;durP1;ratioP1;P2;durP2;ratioP2
28174;SDS011;59417;44.788;10.334;2022-11-11T00:02:02;96.50;;;64.72;;
28174;SDS011;59417;44.788;10.334;2022-11-11T00:04:46;94.32;;;64.43;;
28174;SDS011;59417;44.788;10.334;2022-11-11T00:07:30;91.53;;;65.07;;
28174;SDS011;59417;44.788;10.334;2022-11-11T00:10:14;84.07;;;61.60;;
28174;SDS011;59417;44.788;10.334;2022-11-11T00:12:59;92.13;;;63.03;;
28174;SDS011;59417;44.788;10.334;2022-11-11T00:15:44;87.88;;;62.95;;
28174;SDS011;59417;44.788;10.334;2022-11-11T00:18:28;85.03;;;63.83;;
28174;SDS011;59417;44.788;10.334;2022-11-11T00:21:31;86.43;;;61.20;;
28174;SDS011;59417;44.788;10.334;2022-11-11T00:24:34;86.97;;;61.42;;
28174;SDS011;59417;44.788;10.334;2022-11-11T00:27:38;85.70;;;62.53;;
28174;SDS011;59417;44.788;10.334;2022-11-11T00:30:22;86.15;;;61.45;;
28174;SDS011;59417;44.788;10.334;2022-11-11T00:33:07;88.60;;;65.13;;
28174;SDS011;59417;44.788;10.334;2022-11-11T00:35:52;91.82;;;65.22;;
28174;SDS011;59417;44.788;10.334;2022-11-11T00:38:37;91.10;;;64.65;;
28174;SDS011;59417;44.788;10.334;2022-11-11T00:41:30;94.30;;;64.18;;
28174;SDS011;59417;44.788;10.334;2022-11-11T00:44:14;89.57;;;64.55;;
28174;SDS011;59417;44.788;10.334;2022-11-11T00:46:59;99.50;;;67.55;;
28174;SDS011;59417;44.788;10.334;2022-11-11T00:50:06;101.80;;;69.72;;
28174;SDS011;59417;44.788;10.334;2022-11-11T00:55:58;102.05;;;69.97;;
28174;SDS011;59417;44.788;10.334;2022-11-11T00:58:42;99.40;;;71.95;;
28174;SDS011;59417;44.788;10.334;2022-11-11T01:01:27;96.88;;;69.82;;
28174;SDS011;59417;44.788;10.334;2022-11-11T01:04:12;106.22;;;72.72;;
28174;SDS011;59417;44.788;10.334;2022-11-11T01:06:56;102.10;;;68.63;;
28174;SDS011;59417;44.788;10.334;2022-11-11T01:09:40;97.03;;;69.90;;
28174;SDS011;59417;44.788;10.334;2022-11-11T01:12:24;92.90;;;68.15;;
28174;SDS011;59417;44.788;10.334;2022-11-11T01:15:08;97.43;;;68.85;;
28174;SDS011;59417;44.788;10.334;2022-11-11T01:17:53;98.03;;;68.43;;
28174;SDS011;59417;44.788;10.334;2022-11-11T01:20:38;97.15;;;68.78;;
28174;SDS011;59417;44.788;10.334;2022-11-11T01:23:22;100.47;;;68.85;;
28174;SDS011;59417;44.788;10.334;2022-11-11T01:26:09;100.05;;;68.88;;
28174;SDS011;59417;44.788;10.334;2022-11-11T01:28:54;100.80;;;67.70;;
28174;SDS011;59417;44.788;10.334;2022-11-11T01:31:39;93.47;;;64.75;;
28174;SDS011;59417;44.788;10.334;2022-11-11T01:34:23;94.10;;;65.65;;
28174;SDS011;59417;44.788;10.334;2022-11-11T01:37:08;91.03;;;64.88;;
28174;SDS011;59417;44.788;10.334;2022-11-11T01:39:52;90.13;;;63.13;;
28174;SDS011;59417;44.788;10.334;2022-11-11T01:42:48;98.05;;;66.13;;
28174;SDS011;59417;44.788;10.334;2022-11-11T01:48:44;97.53;;;66.85;;
28174;SDS011;59417;44.788;10.334;2022-11-11T01:51:52;90.75;;;64.95;;
28174;SDS011;59417;44.788;10.334;2022-11-11T01:57:43;93.72;;;63.40;;
28174;SDS011;59417;44.788;10.334;2022-11-11T02:00:33;101.90;;;68.07;;
28174;SDS011;59417;44.788;10.334;2022-11-11T02:03:17;95.80;;;66.32;;
28174;SDS011;59417;44.788;10.334;2022-11-11T02:06:06;93.47;;;66.80;;
28174;SDS011;59417;44.788;10.334;2022-11-11T02:08:51;99.47;;;67.45;;
28174;SDS011;59417;44.788;10.334;2022-11-11T02:11:35;93.03;;;65.22;;
28174;SDS011;59417;44.788;10.334;2022-11-11T02:14:46;94.72;;;65.35;;
28174;SDS011;59417;44.788;10.334;2022-11-11T02:17:32;95.70;;;65.82;;
28174;SDS011;59417;44.788;10.334;2022-11-11T02:20:22;100.20;;;69.93;;
28174;SDS011;59417;44.788;10.334;2022-11-11T02:26:14;98.38;;;66.15;;
28174;SDS011;59417;44.788;10.334;2022-11-11T02:29:00;105.93;;;70.10;;
28174;SDS011;59417;44.788;10.334;2022-11-11T02:31:45;99.57;;;69.15;;
28174;SDS011;59417;44.788;10.334;2022-11-11T02:34:30;102.90;;;72.72;;
28174;SDS011;59417;44.788;10.334;2022-11-11T02:37:15;105.50;;;72.22;;
28174;SDS011;59417;44.788;10.334;2022-11-11T02:40:03;105.57;;;76.68;;
28174;SDS011;59417;44.788;10.334;2022-11-11T02:42:51;107.97;;;73.43;;
28174;SDS011;59417;44.788;10.334;2022-11-11T02:45:35;112.85;;;73.72;;
28174;SDS011;59417;44.788;10.334;2022-11-11T02:48:19;105.75;;;73.90;;
28174;SDS011;59417;44.788;10.334;2022-11-11T02:51:04;104.55;;;71.85;;
28174;SDS011;59417;44.788;10.334;2022-11-11T02:53:49;107.22;;;72.60;;
28174;SDS011;59417;44.788;10.334;2022-11-11T02:56:34;106.97;;;71.40;;
28174;SDS011;59417;44.788;10.334;2022-11-11T02:59:39;103.43;;;71.05;;
28174;SDS011;59417;44.788;10.334;2022-11-11T03:02:23;109.97;;;75.78;;
28174;SDS011;59417;44.788;10.334;2022-11-11T03:05:09;105.75;;;72.60;;
28174;SDS011;59417;44.788;10.334;2022-11-11T03:07:53;109.05;;;74.10;;
28174;SDS011;59417;44.788;10.334;2022-11-11T03:10:38;103.07;;;73.10;;
28174;SDS011;59417;44.788;10.334;2022-11-11T03:13:22;107.85;;;73.60;;
28174;SDS011;59417;44.788;10.334;2022-11-11T03:16:06;106.60;;;71.88;;
28174;SDS011;59417;44.788;10.334;2022-11-11T03:19:10;105.93;;;70.35;;
28174;SDS011;59417;44.788;10.334;2022-11-11T03:21:54;100.13;;;68.22;;
28174;SDS011;59417;44.788;10.334;2022-11-11T03:24:38;97.68;;;67.13;;
28174;SDS011;59417;44.788;10.334;2022-11-11T03:27:41;105.63;;;68.88;;
28174;SDS011;59417;44.788;10.334;2022-11-11T03:30:25;104.32;;;69.93;;
28174;SDS011;59417;44.788;10.334;2022-11-11T03:33:08;98.25;;;69.30;;
28174;SDS011;59417;44.788;10.334;2022-11-11T03:35:53;106.97;;;72.38;;
28174;SDS011;59417;44.788;10.334;2022-11-11T03:38:37;98.85;;;70.60;;
28174;SDS011;59417;44.788;10.334;2022-11-11T03:41:22;111.88;;;70.28;;
28174;SDS011;59417;44.788;10.334;2022-11-11T03:44:06;107.00;;;72.15;;
28174;SDS011;59417;44.788;10.334;2022-11-11T03:46:50;113.20;;;72.80;;
28174;SDS011;59417;44.788;10.334;2022-11-11T03:49:33;113.82;;;72.30;;
28174;SDS011;59417;44.788;10.334;2022-11-11T03:52:17;107.82;;;73.88;;
28174;SDS011;59417;44.788;10.334;2022-11-11T03:55:02;113.55;;;75.15;;
28174;SDS011;59417;44.788;10.334;2022-11-11T03:57:46;104.22;;;71.93;;
28174;SDS011;59417;44.788;10.334;2022-11-11T04:00:31;119.63;;;73.25;;
28174;SDS011;59417;44.788;10.334;2022-11-11T04:03:16;112.97;;;75.22;;
28174;SDS011;59417;44.788;10.334;2022-11-11T04:06:21;117.28;;;75.95;;
28174;SDS011;59417;44.788;10.334;2022-11-11T04:09:24;113.03;;;72.72;;
28174;SDS011;59417;44.788;10.334;2022-11-11T04:12:27;114.78;;;73.28;;
28174;SDS011;59417;44.788;10.334;2022-11-11T04:15:12;115.90;;;76.03;;
28174;SDS011;59417;44.788;10.334;2022-11-11T04:18:15;112.20;;;76.38;;
28174;SDS011;59417;44.788;10.334;2022-11-11T04:20:59;111.18;;;73.55;;
28174;SDS011;59417;44.788;10.334;2022-11-11T04:24:02;111.13;;;74.50;;
28174;SDS011;59417;44.788;10.334;2022-11-11T04:27:13;118.68;;;73.50;;
28174;SDS011;59417;44.788;10.334;2022-11-11T04:29:59;117.20;;;74.28;;
28174;SDS011;59417;44.788;10.334;2022-11-11T04:32:43;108.53;;;73.50;;
28174;SDS011;59417;44.788;10.334;2022-11-11T04:35:30;119.85;;;74.90;;
28174;SDS011;59417;44.788;10.334;2022-11-11T04:38:14;114.80;;;74.60;;
28174;SDS011;59417;44.788;10.334;2022-11-11T04:41:17;117.80;;;76.10;;
28174;SDS011;59417;44.788;10.334;2022-11-11T04:44:01;122.75;;;75.10;;
28174;SDS011;59417;44.788;10.334;2022-11-11T04:47:05;118.13;;;76.53;;
28174;SDS011;59417;44.788;10.334;2022-11-11T04:49:49;122.43;;;78.05;;
28174;SDS011;59417;44.788;10.334;2022-11-11T04:52:33;121.30;;;75.00;;
28174;SDS011;59417;44.788;10.334;2022-11-11T04:55:18;119.43;;;77.93;;
28174;SDS011;59417;44.788;10.334;2022-11-11T04:58:21;125.40;;;76.63;;
28174;SDS011;59417;44.788;10.334;2022-11-11T05:01:07;119.32;;;74.78;;
28174;SDS011;59417;44.788;10.334;2022-11-11T05:03:52;116.75;;;75.03;;
28174;SDS011;59417;44.788;10.334;2022-11-11T05:06:36;112.55;;;70.78;;
28174;SDS011;59417;44.788;10.334;2022-11-11T05:09:39;123.50;;;75.55;;
28174;SDS011;59417;44.788;10.334;2022-11-11T05:12:24;114.50;;;74.00;;
28174;SDS011;59417;44.788;10.334;2022-11-11T05:15:08;109.55;;;73.85;;
28174;SDS011;59417;44.788;10.334;2022-11-11T05:18:13;119.88;;;72.13;;
28174;SDS011;59417;44.788;10.334;2022-11-11T05:21:21;112.72;;;72.53;;
28174;SDS011;59417;44.788;10.334;2022-11-11T05:24:08;109.35;;;70.63;;
28174;SDS011;59417;44.788;10.334;2022-11-11T05:27:11;115.30;;;75.25;;
28174;SDS011;59417;44.788;10.334;2022-11-11T05:29:56;106.55;;;71.68;;
28174;SDS011;59417;44.788;10.334;2022-11-11T05:32:40;110.22;;;68.85;;
28174;SDS011;59417;44.788;10.334;2022-11-11T05:35:25;111.53;;;71.85;;
28174;SDS011;59417;44.788;10.334;2022-11-11T05:38:10;119.13;;;75.55;;
28174;SDS011;59417;44.788;10.334;2022-11-11T05:41:03;112.80;;;71.75;;
28174;SDS011;59417;44.788;10.334;2022-11-11T05:43:47;114.63;;;72.30;;
28174;SDS011;59417;44.788;10.334;2022-11-11T05:46:35;112.38;;;75.00;;
28174;SDS011;59417;44.788;10.334;2022-11-11T05:49:19;115.45;;;74.65;;
28174;SDS011;59417;44.788;10.334;2022-11-11T05:52:04;120.20;;;79.28;;
28174;SDS011;59417;44.788;10.334;2022-11-11T05:54:49;113.75;;;78.13;;
28174;SDS011;59417;44.788;10.334;2022-11-11T05:57:33;117.53;;;78.57;;
28174;SDS011;59417;44.788;10.334;2022-11-11T06:00:17;119.85;;;80.65;;
28174;SDS011;59417;44.788;10.334;2022-11-11T06:03:02;126.68;;;82.13;;
28174;SDS011;59417;44.788;10.334;2022-11-11T06:05:48;117.05;;;78.35;;
28174;SDS011;59417;44.788;10.334;2022-11-11T06:08:33;118.43;;;79.22;;
28174;SDS011;59417;44.788;10.334;2022-11-11T06:11:17;126.47;;;79.28;;
28174;SDS011;59417;44.788;10.334;2022-11-11T06:14:02;120.25;;;81.78;;
28174;SDS011;59417;44.788;10.334;2022-11-11T06:16:46;127.75;;;86.05;;
28174;SDS011;59417;44.788;10.334;2022-11-11T06:19:30;123.32;;;80.28;;
28174;SDS011;59417;44.788;10.334;2022-11-11T06:22:14;123.75;;;80.07;;
28174;SDS011;59417;44.788;10.334;2022-11-11T06:25:18;127.35;;;83.85;;
28174;SDS011;59417;44.788;10.334;2022-11-11T06:28:21;133.60;;;85.82;;
28174;SDS011;59417;44.788;10.334;2022-11-11T06:31:06;134.20;;;85.63;;
28174;SDS011;59417;44.788;10.334;2022-11-11T06:33:51;130.77;;;85.22;;
28174;SDS011;59417;44.788;10.334;2022-11-11T06:36:36;129.00;;;84.97;;
28174;SDS011;59417;44.788;10.334;2022-11-11T06:39:20;119.03;;;82.47;;
28174;SDS011;59417;44.788;10.334;2022-11-11T06:42:04;127.00;;;86.00;;
28174;SDS011;59417;44.788;10.334;2022-11-11T06:44:49;130.65;;;86.00;;
28174;SDS011;59417;44.788;10.334;2022-11-11T06:47:33;135.25;;;88.65;;
28174;SDS011;59417;44.788;10.334;2022-11-11T06:50:17;136.70;;;89.95;;
28174;SDS011;59417;44.788;10.334;2022-11-11T06:53:03;136.77;;;91.18;;
28174;SDS011;59417;44.788;10.334;2022-11-11T06:56:08;144.48;;;92.07;;
28174;SDS011;59417;44.788;10.334;2022-11-11T06:58:55;144.52;;;90.85;;
28174;SDS011;59417;44.788;10.334;2022-11-11T07:01:40;146.00;;;93.30;;
28174;SDS011;59417;44.788;10.334;2022-11-11T07:04:24;142.43;;;94.70;;
28174;SDS011;59417;44.788;10.334;2022-11-11T07:07:08;144.90;;;93.03;;
28174;SDS011;59417;44.788;10.334;2022-11-11T07:09:52;157.93;;;95.93;;
28174;SDS011;59417;44.788;10.334;2022-11-11T07:12:39;141.07;;;88.40;;
28174;SDS011;59417;44.788;10.334;2022-11-11T07:15:24;138.88;;;89.50;;
28174;SDS011;59417;44.788;10.334;2022-11-11T07:18:10;154.65;;;96.30;;
28174;SDS011;59417;44.788;10.334;2022-11-11T07:20:54;170.25;;;99.82;;
28174;SDS011;59417;44.788;10.334;2022-11-11T07:23:38;171.82;;;100.28;;
28174;SDS011;59417;44.788;10.334;2022-11-11T07:26:22;170.02;;;101.03;;
28174;SDS011;59417;44.788;10.334;2022-11-11T07:29:07;169.88;;;101.35;;
28174;SDS011;59417;44.788;10.334;2022-11-11T07:31:52;180.90;;;104.10;;
28174;SDS011;59417;44.788;10.334;2022-11-11T07:34:36;181.32;;;106.95;;
28174;SDS011;59417;44.788;10.334;2022-11-11T07:37:20;190.38;;;103.65;;
28174;SDS011;59417;44.788;10.334;2022-11-11T07:40:07;174.63;;;102.07;;
28174;SDS011;59417;44.788;10.334;2022-11-11T07:42:53;161.57;;;97.38;;
28174;SDS011;59417;44.788;10.334;2022-11-11T07:45:38;157.70;;;95.20;;
28174;SDS011;59417;44.788;10.334;2022-11-11T07:48:23;157.57;;;97.93;;
28174;SDS011;59417;44.788;10.334;2022-11-11T07:51:07;173.18;;;98.07;;
28174;SDS011;59417;44.788;10.334;2022-11-11T07:53:51;162.00;;;99.03;;
28174;SDS011;59417;44.788;10.334;2022-11-11T07:56:35;177.15;;;99.00;;
28174;SDS011;59417;44.788;10.334;2022-11-11T07:59:20;164.52;;;102.13;;
28174;SDS011;59417;44.788;10.334;2022-11-11T08:02:07;170.95;;;98.35;;
28174;SDS011;59417;44.788;10.334;2022-11-11T08:04:56;184.90;;;97.53;;
28174;SDS011;59417;44.788;10.334;2022-11-11T08:07:40;181.82;;;96.05;;
28174;SDS011;59417;44.788;10.334;2022-11-11T08:10:25;176.48;;;97.28;;
28174;SDS011;59417;44.788;10.334;2022-11-11T08:13:11;153.05;;;87.00;;
28174;SDS011;59417;44.788;10.334;2022-11-11T08:16:14;177.32;;;93.75;;
28174;SDS011;59417;44.788;10.334;2022-11-11T08:18:59;163.38;;;92.72;;
28174;SDS011;59417;44.788;10.334;2022-11-11T08:21:44;174.20;;;92.82;;
28174;SDS011;59417;44.788;10.334;2022-11-11T08:24:29;168.55;;;98.10;;
28174;SDS011;59417;44.788;10.334;2022-11-11T08:27:13;154.00;;;94.95;;
28174;SDS011;59417;44.788;10.334;2022-11-11T08:29:58;168.77;;;97.43;;
28174;SDS011;59417;44.788;10.334;2022-11-11T08:32:43;166.27;;;95.05;;
28174;SDS011;59417;44.788;10.334;2022-11-11T08:35:28;152.73;;;87.93;;
28174;SDS011;59417;44.788;10.334;2022-11-11T08:38:14;142.90;;;88.35;;
28174;SDS011;59417;44.788;10.334;2022-11-11T08:41:01;157.60;;;90.13;;
28174;SDS011;59417;44.788;10.334;2022-11-11T08:43:49;163.98;;;90.07;;
28174;SDS011;59417;44.788;10.334;2022-11-11T08:46:35;156.30;;;93.18;;
28174;SDS011;59417;44.788;10.334;2022-11-11T08:49:19;160.60;;;91.40;;
28174;SDS011;59417;44.788;10.334;2022-11-11T08:52:13;152.98;;;91.32;;
28174;SDS011;59417;44.788;10.334;2022-11-11T08:54:59;158.63;;;91.75;;
28174;SDS011;59417;44.788;10.334;2022-11-11T08:57:44;159.85;;;92.82;;
28174;SDS011;59417;44.788;10.334;2022-11-11T09:00:29;159.48;;;92.25;;
28174;SDS011;59417;44.788;10.334;2022-11-11T09:03:15;155.23;;;89.22;;
28174;SDS011;59417;44.788;10.334;2022-11-11T09:06:11;144.65;;;86.95;;
28174;SDS011;59417;44.788;10.334;2022-11-11T09:08:56;143.70;;;88.60;;
28174;SDS011;59417;44.788;10.334;2022-11-11T09:11:44;151.43;;;90.43;;
28174;SDS011;59417;44.788;10.334;2022-11-11T09:14:30;149.38;;;87.70;;
28174;SDS011;59417;44.788;10.334;2022-11-11T09:17:15;158.20;;;91.32;;
28174;SDS011;59417;44.788;10.334;2022-11-11T09:20:00;134.27;;;80.85;;
28174;SDS011;59417;44.788;10.334;2022-11-11T09:22:45;140.70;;;79.55;;
28174;SDS011;59417;44.788;10.334;2022-11-11T09:25:31;134.77;;;84.53;;
28174;SDS011;59417;44.788;10.334;2022-11-11T09:28:16;147.60;;;85.20;;
28174;SDS011;59417;44.788;10.334;2022-11-11T09:31:03;150.70;;;86.03;;
28174;SDS011;59417;44.788;10.334;2022-11-11T09:33:49;149.68;;;85.30;;
28174;SDS011;59417;44.788;10.334;2022-11-11T09:36:34;145.90;;;85.20;;
28174;SDS011;59417;44.788;10.334;2022-11-11T09:39:18;141.73;;;83.18;;
28174;SDS011;59417;44.788;10.334;2022-11-11T09:42:10;133.77;;;81.15;;
28174;SDS011;59417;44.788;10.334;2022-11-11T09:45:33;133.57;;;83.20;;
28174;SDS011;59417;44.788;10.334;2022-11-11T09:55:16;135.85;;;83.05;;
28174;SDS011;59417;44.788;10.334;2022-11-11T10:01:01;131.48;;;79.57;;
28174;SDS011;59417;44.788;10.334;2022-11-11T10:04:44;138.40;;;82.05;;
28174;SDS011;59417;44.788;10.334;2022-11-11T10:06:58;132.35;;;79.18;;
28174;SDS011;59417;44.788;10.334;2022-11-11T10:09:49;140.63;;;85.03;;
28174;SDS011;59417;44.788;10.334;2022-11-11T10:12:45;136.90;;;79.68;;
28174;SDS011;59417;44.788;10.334;2022-11-11T10:15:34;137.95;;;83.93;;
28174;SDS011;59417;44.788;10.334;2022-11-11T10:21:25;135.93;;;83.28;;
28174;SDS011;59417;44.788;10.334;2022-11-11T10:24:41;143.23;;;81.13;;
28174;SDS011;59417;44.788;10.334;2022-11-11T10:27:28;139.45;;;81.70;;
28174;SDS011;59417;44.788;10.334;2022-11-11T10:36:08;132.25;;;77.28;;
28174;SDS011;59417;44.788;10.334;2022-11-11T10:39:03;131.77;;;78.07;;
28174;SDS011;59417;44.788;10.334;2022-11-11T10:41:48;119.40;;;72.88;;
28174;SDS011;59417;44.788;10.334;2022-11-11T10:44:34;125.32;;;72.10;;
28174;SDS011;59417;44.788;10.334;2022-11-11T10:56:25;115.53;;;66.55;;
28174;SDS011;59417;44.788;10.334;2022-11-11T11:02:05;112.25;;;70.85;;
28174;SDS011;59417;44.788;10.334;2022-11-11T11:05:05;120.72;;;71.80;;
28174;SDS011;59417;44.788;10.334;2022-11-11T11:08:19;117.35;;;69.68;;
28174;SDS011;59417;44.788;10.334;2022-11-11T11:11:22;125.68;;;72.75;;
28174;SDS011;59417;44.788;10.334;2022-11-11T11:14:20;110.07;;;68.07;;
28174;SDS011;59417;44.788;10.334;2022-11-11T11:17:12;117.47;;;72.13;;
28174;SDS011;59417;44.788;10.334;2022-11-11T11:22:52;123.07;;;71.95;;
28174;SDS011;59417;44.788;10.334;2022-11-11T11:25:51;115.43;;;72.30;;
28174;SDS011;59417;44.788;10.334;2022-11-11T11:28:57;124.70;;;71.43;;
28174;SDS011;59417;44.788;10.334;2022-11-11T11:31:44;115.55;;;68.85;;
28174;SDS011;59417;44.788;10.334;2022-11-11T11:34:49;118.78;;;69.45;;
28174;SDS011;59417;44.788;10.334;2022-11-11T11:37:47;107.03;;;68.38;;
28174;SDS011;59417;44.788;10.334;2022-11-11T11:40:50;111.68;;;69.82;;
28174;SDS011;59417;44.788;10.334;2022-11-11T11:43:37;113.47;;;70.55;;
28174;SDS011;59417;44.788;10.334;2022-11-11T11:46:27;123.97;;;71.90;;
28174;SDS011;59417;44.788;10.334;2022-11-11T11:55:45;113.57;;;69.70;;
28174;SDS011;59417;44.788;10.334;2022-11-11T12:11:46;91.38;;;56.88;;
28174;SDS011;59417;44.788;10.334;2022-11-11T12:14:43;100.25;;;62.10;;
28174;SDS011;59417;44.788;10.334;2022-11-11T12:21:00;95.97;;;60.55;;
28174;SDS011;59417;44.788;10.334;2022-11-11T12:23:57;105.88;;;59.67;;
28174;SDS011;59417;44.788;10.334;2022-11-11T12:27:16;93.72;;;57.20;;
28174;SDS011;59417;44.788;10.334;2022-11-11T12:30:22;86.72;;;55.53;;
28174;SDS011;59417;44.788;10.334;2022-11-11T12:36:20;77.43;;;50.28;;
28174;SDS011;59417;44.788;10.334;2022-11-11T12:42:16;84.18;;;50.95;;
28174;SDS011;59417;44.788;10.334;2022-11-11T12:45:21;75.40;;;47.67;;
28174;SDS011;59417;44.788;10.334;2022-11-11T12:48:27;66.28;;;41.08;;
28174;SDS011;59417;44.788;10.334;2022-11-11T12:51:36;59.70;;;39.80;;
28174;SDS011;59417;44.788;10.334;2022-11-11T12:57:33;53.47;;;34.95;;
28174;SDS011;59417;44.788;10.334;2022-11-11T13:00:50;48.13;;;33.67;;
28174;SDS011;59417;44.788;10.334;2022-11-11T13:13:14;71.70;;;43.50;;
28174;SDS011;59417;44.788;10.334;2022-11-11T13:16:25;61.50;;;42.55;;
28174;SDS011;59417;44.788;10.334;2022-11-11T13:25:04;67.35;;;40.53;;
28174;SDS011;59417;44.788;10.334;2022-11-11T13:27:55;58.53;;;39.15;;
28174;SDS011;59417;44.788;10.334;2022-11-11T13:31:02;58.42;;;37.85;;
28174;SDS011;59417;44.788;10.334;2022-11-11T13:33:52;54.78;;;37.72;;
28174;SDS011;59417;44.788;10.334;2022-11-11T13:36:43;55.47;;;36.05;;
28174;SDS011;59417;44.788;10.334;2022-11-11T13:39:31;53.95;;;34.47;;
28174;SDS011;59417;44.788;10.334;2022-11-11T13:42:22;47.00;;;32.42;;
28174;SDS011;59417;44.788;10.334;2022-11-11T13:45:21;54.30;;;35.60;;
28174;SDS011;59417;44.788;10.334;2022-11-11T13:48:16;56.78;;;35.90;;
28174;SDS011;59417;44.788;10.334;2022-11-11T13:54:22;55.58;;;36.80;;
28174;SDS011;59417;44.788;10.334;2022-11-11T14:03:26;56.35;;;36.90;;
28174;SDS011;59417;44.788;10.334;2022-11-11T14:08:58;54.47;;;35.97;;
28174;SDS011;59417;44.788;10.334;2022-11-11T14:11:42;57.28;;;37.05;;
28174;SDS011;59417;44.788;10.334;2022-11-11T14:17:17;49.17;;;32.67;;
28174;SDS011;59417;44.788;10.334;2022-11-11T14:26:24;61.85;;;41.60;;
28174;SDS011;59417;44.788;10.334;2022-11-11T14:29:15;64.57;;;40.85;;
28174;SDS011;59417;44.788;10.334;2022-11-11T14:32:26;72.88;;;42.50;;
28174;SDS011;59417;44.788;10.334;2022-11-11T14:35:35;65.47;;;42.28;;
28174;SDS011;59417;44.788;10.334;2022-11-11T14:41:46;67.60;;;43.05;;
28174;SDS011;59417;44.788;10.334;2022-11-11T14:47:22;64.60;;;41.90;;
28174;SDS011;59417;44.788;10.334;2022-11-11T14:53:18;61.28;;;41.38;;
28174;SDS011;59417;44.788;10.334;2022-11-11T14:56:03;63.15;;;41.05;;
28174;SDS011;59417;44.788;10.334;2022-11-11T14:58:59;60.97;;;39.00;;
28174;SDS011;59417;44.788;10.334;2022-11-11T15:01:49;61.20;;;39.45;;
28174;SDS011;59417;44.788;10.334;2022-11-11T15:04:36;63.38;;;40.55;;
28174;SDS011;59417;44.788;10.334;2022-11-11T15:07:26;64.68;;;42.42;;
28174;SDS011;59417;44.788;10.334;2022-11-11T15:10:21;68.32;;;43.13;;
28174;SDS011;59417;44.788;10.334;2022-11-11T15:16:33;70.40;;;44.22;;
28174;SDS011;59417;44.788;10.334;2022-11-11T15:38:27;71.82;;;44.47;;
28174;SDS011;59417;44.788;10.334;2022-11-11T15:41:33;65.53;;;44.13;;
28174;SDS011;59417;44.788;10.334;2022-11-11T15:44:25;66.88;;;42.30;;
28174;SDS011;59417;44.788;10.334;2022-11-11T15:47:15;67.75;;;43.13;;
28174;SDS011;59417;44.788;10.334;2022-11-11T15:50:02;68.22;;;43.88;;
28174;SDS011;59417;44.788;10.334;2022-11-11T15:52:52;68.18;;;43.67;;
28174;SDS011;59417;44.788;10.334;2022-11-11T15:55:38;70.35;;;43.67;;
28174;SDS011;59417;44.788;10.334;2022-11-11T16:01:12;70.00;;;42.00;;
28174;SDS011;59417;44.788;10.334;2022-11-11T16:03:56;67.57;;;42.67;;
28174;SDS011;59417;44.788;10.334;2022-11-11T16:06:41;67.43;;;42.50;;
28174;SDS011;59417;44.788;10.334;2022-11-11T16:09:26;65.72;;;43.15;;
28174;SDS011;59417;44.788;10.334;2022-11-11T16:12:15;70.10;;;41.92;;
28174;SDS011;59417;44.788;10.334;2022-11-11T16:15:03;68.13;;;44.20;;
28174;SDS011;59417;44.788;10.334;2022-11-11T16:17:51;67.57;;;42.80;;
28174;SDS011;59417;44.788;10.334;2022-11-11T16:20:44;67.15;;;43.35;;
28174;SDS011;59417;44.788;10.334;2022-11-11T16:23:49;74.32;;;44.80;;
28174;SDS011;59417;44.788;10.334;2022-11-11T16:26:34;68.95;;;42.17;;
28174;SDS011;59417;44.788;10.334;2022-11-11T16:29:19;73.50;;;45.30;;
28174;SDS011;59417;44.788;10.334;2022-11-11T16:38:08;70.40;;;43.67;;
28174;SDS011;59417;44.788;10.334;2022-11-11T16:40:53;70.80;;;45.15;;
28174;SDS011;59417;44.788;10.334;2022-11-11T16:43:40;73.43;;;44.78;;
28174;SDS011;59417;44.788;10.334;2022-11-11T16:49:20;65.75;;;45.55;;
28174;SDS011;59417;44.788;10.334;2022-11-11T16:52:17;76.90;;;44.75;;
28174;SDS011;59417;44.788;10.334;2022-11-11T16:55:04;69.95;;;41.78;;
28174;SDS011;59417;44.788;10.334;2022-11-11T16:57:52;67.38;;;44.72;;
28174;SDS011;59417;44.788;10.334;2022-11-11T17:00:37;72.20;;;44.83;;
28174;SDS011;59417;44.788;10.334;2022-11-11T17:03:23;70.93;;;45.92;;
28174;SDS011;59417;44.788;10.334;2022-11-11T17:06:08;72.15;;;46.08;;
28174;SDS011;59417;44.788;10.334;2022-11-11T17:08:53;73.30;;;44.60;;
28174;SDS011;59417;44.788;10.334;2022-11-11T17:14:23;76.90;;;46.92;;
28174;SDS011;59417;44.788;10.334;2022-11-11T17:17:08;76.72;;;46.80;;
28174;SDS011;59417;44.788;10.334;2022-11-11T17:19:53;73.38;;;46.38;;
28174;SDS011;59417;44.788;10.334;2022-11-11T17:22:46;69.72;;;46.80;;
28174;SDS011;59417;44.788;10.334;2022-11-11T17:25:35;74.93;;;44.67;;
28174;SDS011;59417;44.788;10.334;2022-11-11T17:28:19;66.82;;;44.85;;
28174;SDS011;59417;44.788;10.334;2022-11-11T17:31:04;74.03;;;47.38;;
28174;SDS011;59417;44.788;10.334;2022-11-11T17:33:49;70.45;;;47.35;;
28174;SDS011;59417;44.788;10.334;2022-11-11T17:36:33;70.10;;;44.47;;
28174;SDS011;59417;44.788;10.334;2022-11-11T17:39:17;75.88;;;46.67;;
28174;SDS011;59417;44.788;10.334;2022-11-11T17:42:02;71.60;;;44.55;;
28174;SDS011;59417;44.788;10.334;2022-11-11T17:44:46;71.18;;;45.03;;
28174;SDS011;59417;44.788;10.334;2022-11-11T17:47:30;76.20;;;44.88;;
28174;SDS011;59417;44.788;10.334;2022-11-11T17:50:16;77.40;;;45.65;;
28174;SDS011;59417;44.788;10.334;2022-11-11T17:53:01;72.57;;;45.42;;
28174;SDS011;59417;44.788;10.334;2022-11-11T17:55:45;69.30;;;44.50;;
28174;SDS011;59417;44.788;10.334;2022-11-11T17:58:29;68.78;;;45.72;;
28174;SDS011;59417;44.788;10.334;2022-11-11T18:01:14;74.68;;;45.67;;
28174;SDS011;59417;44.788;10.334;2022-11-11T18:03:58;79.85;;;46.67;;
28174;SDS011;59417;44.788;10.334;2022-11-11T18:06:43;70.35;;;45.85;;
28174;SDS011;59417;44.788;10.334;2022-11-11T18:09:27;73.35;;;45.70;;
28174;SDS011;59417;44.788;10.334;2022-11-11T18:12:12;79.05;;;44.33;;
28174;SDS011;59417;44.788;10.334;2022-11-11T18:14:56;70.35;;;45.20;;
28174;SDS011;59417;44.788;10.334;2022-11-11T18:17:40;68.88;;;46.33;;
28174;SDS011;59417;44.788;10.334;2022-11-11T18:20:25;76.07;;;44.55;;
28174;SDS011;59417;44.788;10.334;2022-11-11T18:23:09;79.30;;;46.20;;
28174;SDS011;59417;44.788;10.334;2022-11-11T18:25:53;84.75;;;46.25;;
28174;SDS011;59417;44.788;10.334;2022-11-11T18:28:38;69.93;;;41.65;;
28174;SDS011;59417;44.788;10.334;2022-11-11T18:31:22;66.07;;;40.83;;
28174;SDS011;59417;44.788;10.334;2022-11-11T18:34:07;66.32;;;43.20;;
28174;SDS011;59417;44.788;10.334;2022-11-11T18:36:51;72.18;;;45.63;;
28174;SDS011;59417;44.788;10.334;2022-11-11T18:39:36;73.43;;;45.92;;
28174;SDS011;59417;44.788;10.334;2022-11-11T18:42:20;73.20;;;44.42;;
28174;SDS011;59417;44.788;10.334;2022-11-11T18:45:05;73.22;;;46.28;;
28174;SDS011;59417;44.788;10.334;2022-11-11T18:47:50;76.20;;;46.28;;